createdAt,value
2023-05-10T00:01:31.750Z,99.90
2023-05-10T00:03:58.679Z,99.90
2023-05-10T00:06:25.681Z,99.90
2023-05-10T00:08:52.549Z,99.90
2023-05-10T00:11:21.563Z,99.90
2023-05-10T00:13:49.780Z,99.90
2023-05-10T00:16:16.854Z,99.90
2023-05-10T00:18:43.872Z,99.90
2023-05-10T00:21:11.156Z,99.90
2023-05-10T00:23:38.546Z,99.90
2023-05-10T00:26:05.534Z,99.90
2023-05-10T00:28:32.582Z,99.90
2023-05-10T00:30:59.407Z,99.90
2023-05-10T00:33:26.327Z,99.90
2023-05-10T00:35:53.520Z,99.90
2023-05-10T00:38:20.434Z,99.90
2023-05-10T00:40:47.391Z,99.90
2023-05-10T00:43:14.371Z,99.90
2023-05-10T00:45:42.520Z,99.90
2023-05-10T00:48:10.022Z,99.90
2023-05-10T00:50:37.243Z,99.90
2023-05-10T00:53:04.454Z,99.90
2023-05-10T00:55:32.145Z,99.90
2023-05-10T00:57:59.185Z,99.90
2023-05-10T01:00:26.481Z,99.90
2023-05-10T01:02:55.264Z,99.90
2023-05-10T01:05:22.973Z,99.90
2023-05-10T01:07:50.084Z,99.90
2023-05-10T01:10:17.617Z,99.90
2023-05-10T01:12:48.100Z,99.90
2023-05-10T01:15:17.018Z,99.90
2023-05-10T01:17:46.294Z,99.90
2023-05-10T01:20:14.616Z,99.90
2023-05-10T01:22:51.164Z,99.90
2023-05-10T01:25:34.258Z,99.90
2023-05-10T01:28:19.151Z,99.90
2023-05-10T01:31:10.702Z,99.90
2023-05-10T01:33:44.449Z,99.90
2023-05-10T01:37:00.000Z,99.90
2023-05-10T01:39:49.135Z,99.90
2023-05-10T01:42:22.938Z,99.90
2023-05-10T01:45:17.527Z,99.90
2023-05-10T01:48:08.510Z,99.90
2023-05-10T01:50:39.658Z,99.90
2023-05-10T01:53:11.909Z,99.90
2023-05-10T01:55:50.582Z,99.90
2023-05-10T01:58:31.752Z,99.90
2023-05-10T02:01:02.003Z,99.90
2023-05-10T02:03:30.821Z,99.90
2023-05-10T02:05:59.197Z,99.90
2023-05-10T02:08:26.787Z,99.90
2023-05-10T02:10:57.105Z,99.90
2023-05-10T02:13:27.142Z,99.90
2023-05-10T02:15:56.056Z,99.90
2023-05-10T02:18:25.026Z,99.90
2023-05-10T02:20:53.674Z,99.90
2023-05-10T02:23:21.845Z,99.90
2023-05-10T02:25:50.625Z,99.90
2023-05-10T02:28:19.296Z,99.90
2023-05-10T02:30:48.263Z,99.90
2023-05-10T02:33:16.127Z,99.90
2023-05-10T02:35:43.254Z,99.90
2023-05-10T02:38:13.108Z,99.90
2023-05-10T02:40:43.485Z,99.90
2023-05-10T02:43:15.685Z,99.90
2023-05-10T02:45:44.077Z,99.90
2023-05-10T02:48:11.066Z,99.90
2023-05-10T02:50:41.145Z,99.90
2023-05-10T02:53:16.629Z,99.90
2023-05-10T02:55:47.532Z,99.90
2023-05-10T02:58:14.513Z,99.90
2023-05-10T03:00:41.613Z,99.90
2023-05-10T03:03:08.630Z,99.90
2023-05-10T03:05:35.591Z,99.90
2023-05-10T03:08:05.156Z,99.90
2023-05-10T03:10:35.097Z,99.90
2023-05-10T03:13:51.262Z,99.90
2023-05-10T03:16:26.902Z,99.90
2023-05-10T03:19:08.421Z,99.90
2023-05-10T03:21:43.274Z,99.90
2023-05-10T03:24:13.333Z,99.90
2023-05-10T03:26:41.082Z,99.90
2023-05-10T03:29:09.008Z,99.90
2023-05-10T03:31:36.179Z,99.90
2023-05-10T03:34:03.471Z,99.90
2023-05-10T03:36:30.757Z,99.90
2023-05-10T03:38:57.619Z,99.90
2023-05-10T03:41:24.780Z,99.90
2023-05-10T03:43:51.790Z,99.90
2023-05-10T03:46:18.890Z,99.90
2023-05-10T03:48:45.845Z,99.90
2023-05-10T03:51:12.893Z,99.90
2023-05-10T03:53:39.793Z,99.90
2023-05-10T03:56:06.951Z,99.90
2023-05-10T03:58:33.984Z,99.90
2023-05-10T04:01:00.985Z,99.90
2023-05-10T04:03:28.114Z,99.90
2023-05-10T04:06:02.869Z,99.90
2023-05-10T04:08:30.115Z,99.90
2023-05-10T04:11:10.348Z,99.90
2023-05-10T04:13:37.828Z,99.90
2023-05-10T04:16:05.464Z,99.90
2023-05-10T04:18:32.887Z,99.90
2023-05-10T04:20:59.817Z,99.90
2023-05-10T04:23:26.858Z,99.90
2023-05-10T04:25:53.827Z,99.90
2023-05-10T04:28:20.886Z,99.90
2023-05-10T04:30:48.146Z,99.90
2023-05-10T04:33:15.429Z,99.90
2023-05-10T04:35:42.564Z,99.90
2023-05-10T04:38:09.400Z,99.90
2023-05-10T04:40:36.763Z,99.90
2023-05-10T04:43:03.713Z,99.90
2023-05-10T04:45:30.958Z,99.90
2023-05-10T04:47:57.914Z,99.90
2023-05-10T04:50:24.886Z,99.90
2023-05-10T04:52:53.206Z,99.90
2023-05-10T04:55:20.395Z,99.90
2023-05-10T04:57:47.388Z,99.90
2023-05-10T05:00:15.069Z,99.90
2023-05-10T05:02:49.044Z,99.90
2023-05-10T05:05:16.057Z,99.90
2023-05-10T05:07:42.922Z,99.90
2023-05-10T05:10:10.085Z,99.90
2023-05-10T05:12:37.152Z,99.90
2023-05-10T05:15:04.495Z,99.90
2023-05-10T05:17:32.464Z,99.90
2023-05-10T05:19:59.398Z,99.90
2023-05-10T05:22:28.697Z,99.90
2023-05-10T05:24:56.682Z,99.90
2023-05-10T05:27:25.201Z,99.90
2023-05-10T05:29:54.600Z,99.90
2023-05-10T05:32:21.761Z,99.90
2023-05-10T05:34:49.889Z,99.90
2023-05-10T05:37:18.904Z,99.90
2023-05-10T05:39:45.992Z,99.90
2023-05-10T05:42:14.327Z,99.90
2023-05-10T05:44:41.382Z,99.90
2023-05-10T05:47:08.368Z,99.90
2023-05-10T05:49:35.224Z,99.90
2023-05-10T05:52:04.166Z,99.90
2023-05-10T05:54:32.164Z,99.90
2023-05-10T05:57:01.434Z,99.90
2023-05-10T05:59:28.927Z,99.90
2023-05-10T06:01:56.042Z,99.90
2023-05-10T06:04:22.950Z,99.90
2023-05-10T06:06:50.072Z,99.90
2023-05-10T06:09:17.042Z,99.90
2023-05-10T06:11:44.023Z,99.90
2023-05-10T06:14:10.942Z,99.90
2023-05-10T06:16:38.098Z,99.90
2023-05-10T06:19:05.256Z,99.90
2023-05-10T06:21:32.282Z,99.90
2023-05-10T06:23:59.218Z,99.90
2023-05-10T06:26:26.440Z,99.90
2023-05-10T06:28:53.346Z,99.90
2023-05-10T06:31:20.330Z,99.90
2023-05-10T06:33:47.321Z,99.90
2023-05-10T06:36:14.333Z,99.90
2023-05-10T06:38:41.395Z,99.90
2023-05-10T06:41:08.289Z,99.90
2023-05-10T06:43:35.795Z,99.50
2023-05-10T06:46:02.790Z,99.20
2023-05-10T06:48:29.877Z,99.30
2023-05-10T06:50:56.863Z,99.30
2023-05-10T06:53:23.762Z,99.90
2023-05-10T06:55:51.212Z,99.90
2023-05-10T06:58:18.170Z,99.90
2023-05-10T07:00:46.420Z,99.90
2023-05-10T07:03:14.485Z,99.20
2023-05-10T07:05:41.496Z,98.80
2023-05-10T07:08:08.588Z,98.70
2023-05-10T07:10:35.520Z,99.80
2023-05-10T07:13:02.598Z,99.30
2023-05-10T07:15:29.827Z,99.00
2023-05-10T07:17:56.813Z,99.90
2023-05-10T07:20:23.923Z,98.80
2023-05-10T07:22:50.984Z,99.20
2023-05-10T07:25:18.106Z,99.40
2023-05-10T07:27:45.136Z,98.40
2023-05-10T07:30:13.023Z,98.80
2023-05-10T07:32:40.607Z,98.10
2023-05-10T07:35:08.143Z,98.00
2023-05-10T07:37:37.074Z,98.40
2023-05-10T07:40:04.670Z,99.50
2023-05-10T07:42:31.590Z,98.60
2023-05-10T07:44:58.885Z,99.30
2023-05-10T07:47:25.843Z,98.90
2023-05-10T07:49:52.946Z,99.10
2023-05-10T07:52:22.442Z,98.50
2023-05-10T07:54:49.739Z,99.10
2023-05-10T07:57:18.570Z,98.80
2023-05-10T07:59:46.215Z,97.90
2023-05-10T08:02:13.193Z,97.90
2023-05-10T08:04:40.163Z,97.90
2023-05-10T08:07:07.070Z,96.50
2023-05-10T08:09:34.405Z,97.30
2023-05-10T08:12:01.397Z,97.80
2023-05-10T08:14:30.700Z,98.80
2023-05-10T08:16:57.615Z,97.60
2023-05-10T08:19:24.917Z,97.30
2023-05-10T08:21:52.029Z,95.80
2023-05-10T08:24:19.038Z,95.80
2023-05-10T08:26:46.026Z,95.90
2023-05-10T08:29:12.974Z,95.70
2023-05-10T08:31:39.879Z,95.50
2023-05-10T08:34:06.964Z,95.20
2023-05-10T08:36:34.139Z,95.60
2023-05-10T08:39:01.050Z,95.20
2023-05-10T08:41:28.652Z,95.80
2023-05-10T08:43:57.407Z,95.70
2023-05-10T08:46:24.828Z,97.00
2023-05-10T08:48:53.206Z,96.00
2023-05-10T08:51:27.753Z,95.60
2023-05-10T08:53:55.119Z,96.00
2023-05-10T08:56:22.216Z,95.20
2023-05-10T08:58:50.784Z,94.30
2023-05-10T09:01:19.296Z,94.50
2023-05-10T09:03:48.815Z,94.90
2023-05-10T09:06:16.717Z,94.80
2023-05-10T09:08:44.393Z,94.40
2023-05-10T09:11:13.136Z,94.10
2023-05-10T09:13:40.177Z,94.90
2023-05-10T09:16:20.528Z,95.20
2023-05-10T09:18:48.611Z,94.90
2023-05-10T09:21:15.705Z,95.00
2023-05-10T09:23:51.058Z,95.00
2023-05-10T09:26:18.449Z,94.60
2023-05-10T09:28:57.520Z,94.00
2023-05-10T09:31:26.720Z,93.10
2023-05-10T09:33:54.279Z,92.90
2023-05-10T09:36:21.267Z,92.70
2023-05-10T09:38:53.658Z,93.00
2023-05-10T09:41:24.637Z,93.30
2023-05-10T09:43:56.614Z,92.20
2023-05-10T09:46:23.966Z,92.00
2023-05-10T09:48:51.018Z,91.80
2023-05-10T09:51:25.840Z,92.10
2023-05-10T09:54:15.400Z,91.20
2023-05-10T09:56:42.740Z,91.80
2023-05-10T09:59:13.219Z,92.90
2023-05-10T10:01:41.457Z,92.50
2023-05-10T10:04:10.772Z,92.10
2023-05-10T10:06:40.238Z,90.80
2023-05-10T10:09:08.826Z,90.10
2023-05-10T10:11:37.667Z,90.50
2023-05-10T10:14:05.875Z,90.60
2023-05-10T10:16:33.428Z,90.80
2023-05-10T10:19:00.548Z,91.70
2023-05-10T10:21:28.090Z,91.30
2023-05-10T10:23:55.407Z,90.70
2023-05-10T10:26:22.494Z,91.80
2023-05-10T10:29:21.964Z,92.00
2023-05-10T10:32:23.618Z,92.50
2023-05-10T10:34:50.862Z,90.90
2023-05-10T10:37:18.068Z,90.50
2023-05-10T10:39:45.072Z,91.20
2023-05-10T10:42:11.984Z,89.80
2023-05-10T10:44:39.658Z,87.00
2023-05-10T10:47:12.906Z,88.20
2023-05-10T10:49:42.742Z,89.20
2023-05-10T10:52:34.483Z,84.10
2023-05-10T10:55:10.045Z,85.20
2023-05-10T10:58:01.652Z,84.60
2023-05-10T11:00:39.349Z,84.20
2023-05-10T11:03:19.996Z,82.30
2023-05-10T11:05:53.552Z,84.40
2023-05-10T11:08:32.247Z,82.30
2023-05-10T11:11:03.171Z,82.50
2023-05-10T11:13:41.367Z,78.90
2023-05-10T11:16:43.986Z,77.80
2023-05-10T11:19:17.250Z,79.80
2023-05-10T11:21:52.305Z,80.20
2023-05-10T11:24:22.903Z,78.30
2023-05-10T11:26:53.074Z,75.10
2023-05-10T11:29:20.200Z,78.80
2023-05-10T11:31:48.551Z,78.00
2023-05-10T11:34:36.597Z,79.10
2023-05-10T11:37:03.883Z,78.50
2023-05-10T11:39:32.674Z,80.40
2023-05-10T11:42:00.247Z,80.40
2023-05-10T11:44:32.335Z,80.40
2023-05-10T11:47:03.271Z,81.40
2023-05-10T11:49:30.409Z,81.40
2023-05-10T11:52:08.485Z,82.60
2023-05-10T11:54:38.642Z,83.40
2023-05-10T11:57:05.829Z,82.90
2023-05-10T11:59:32.802Z,83.00
2023-05-10T12:02:00.304Z,84.80
2023-05-10T12:04:30.224Z,83.70
2023-05-10T12:06:57.312Z,81.80
2023-05-10T12:12:00.617Z,84.60
2023-05-10T12:14:27.501Z,84.30
2023-05-10T12:16:58.613Z,81.70
2023-05-10T12:19:25.628Z,79.60
2023-05-10T12:21:52.583Z,81.80
2023-05-10T12:24:20.191Z,81.60
2023-05-10T12:27:02.252Z,79.30
2023-05-10T12:29:31.754Z,77.50
2023-05-10T12:32:00.661Z,76.60
2023-05-10T12:34:37.094Z,79.20
2023-05-10T12:37:04.823Z,80.70
2023-05-10T12:39:45.571Z,78.00
2023-05-10T12:42:12.881Z,72.50
2023-05-10T12:44:40.720Z,70.90
2023-05-10T12:47:07.859Z,70.80
2023-05-10T12:49:35.109Z,69.60
2023-05-10T12:52:02.375Z,71.50
2023-05-10T12:54:29.275Z,74.70
2023-05-10T12:56:56.227Z,75.10
2023-05-10T12:59:23.836Z,76.50
2023-05-10T13:01:50.961Z,73.00
2023-05-10T13:04:18.007Z,73.60
2023-05-10T13:06:45.035Z,74.10
2023-05-10T13:09:11.933Z,72.60
2023-05-10T13:11:38.933Z,74.10
2023-05-10T13:14:05.873Z,74.50
2023-05-10T13:16:33.052Z,74.50
2023-05-10T13:19:00.343Z,74.40
2023-05-10T13:21:27.612Z,74.70
2023-05-10T13:23:54.574Z,75.00
2023-05-10T13:26:22.233Z,74.20
2023-05-10T13:28:50.609Z,75.20
2023-05-10T13:31:17.620Z,75.20
2023-05-10T13:33:44.520Z,76.30
2023-05-10T13:36:11.464Z,76.80
2023-05-10T13:38:38.564Z,77.10
2023-05-10T13:41:05.661Z,76.90
2023-05-10T13:43:32.621Z,76.20
2023-05-10T13:45:59.646Z,75.80
2023-05-10T13:48:27.855Z,75.70
2023-05-10T13:50:54.747Z,77.10
2023-05-10T13:53:22.156Z,79.00
2023-05-10T13:55:49.191Z,79.50
2023-05-10T13:58:16.075Z,78.10
2023-05-10T14:00:43.113Z,79.30
2023-05-10T14:03:12.054Z,80.70
2023-05-10T14:05:39.443Z,75.70
2023-05-10T14:08:06.435Z,77.20
2023-05-10T14:10:33.381Z,78.00
2023-05-10T14:13:00.575Z,77.80
2023-05-10T14:15:27.487Z,73.90
2023-05-10T14:17:54.553Z,70.50
2023-05-10T14:20:21.560Z,56.60
2023-05-10T14:22:48.436Z,52.10
2023-05-10T14:25:16.363Z,51.90
2023-05-10T14:27:43.451Z,51.30
2023-05-10T14:30:11.075Z,50.80
2023-05-10T14:32:38.744Z,50.60
2023-05-10T14:35:07.084Z,49.20
2023-05-10T14:37:34.347Z,48.90
2023-05-10T14:40:02.139Z,48.80
2023-05-10T14:42:29.485Z,50.10
2023-05-10T14:44:56.552Z,51.30
2023-05-10T14:47:23.691Z,51.70
2023-05-10T14:49:50.622Z,52.80
2023-05-10T14:52:17.676Z,53.70
2023-05-10T14:54:45.003Z,53.80
2023-05-10T14:57:12.148Z,54.70
2023-05-10T14:59:39.067Z,55.50
2023-05-10T15:02:06.932Z,56.10
2023-05-10T15:04:34.392Z,57.30
2023-05-10T15:07:01.586Z,58.10
2023-05-10T15:09:28.844Z,57.70
2023-05-10T15:11:56.461Z,57.60
2023-05-10T15:14:23.978Z,57.70
2023-05-10T15:16:51.108Z,58.60
2023-05-10T15:19:18.037Z,59.50
2023-05-10T15:21:45.528Z,59.60
2023-05-10T15:24:12.522Z,60.30
2023-05-10T15:26:39.474Z,60.60
2023-05-10T15:29:06.425Z,61.10
2023-05-10T15:31:36.128Z,60.30
2023-05-10T15:34:03.283Z,61.00
2023-05-10T15:36:30.197Z,61.60
2023-05-10T15:38:57.188Z,62.00
2023-05-10T15:41:24.675Z,60.20
2023-05-10T15:43:51.622Z,61.60
2023-05-10T15:46:18.636Z,62.60
2023-05-10T15:48:45.534Z,63.30
2023-05-10T15:51:12.462Z,63.20
2023-05-10T15:53:46.646Z,63.70
2023-05-10T15:56:20.052Z,64.80
2023-05-10T15:58:47.070Z,65.40
2023-05-10T16:01:14.129Z,64.90
2023-05-10T16:03:41.247Z,64.30
2023-05-10T16:06:08.214Z,64.30
2023-05-10T16:08:35.451Z,63.40
2023-05-10T16:11:02.976Z,62.80
2023-05-10T16:13:30.474Z,59.60
2023-05-10T16:15:58.278Z,57.70
2023-05-10T16:18:25.388Z,57.70
2023-05-10T16:20:53.794Z,56.20
2023-05-10T16:23:20.856Z,55.10
2023-05-10T16:25:47.760Z,54.70
2023-05-10T16:28:14.691Z,53.60
2023-05-10T16:30:41.641Z,51.80
2023-05-10T16:33:08.829Z,50.50
2023-05-10T16:35:35.913Z,49.60
2023-05-10T16:38:02.963Z,49.50
2023-05-10T16:40:29.895Z,49.70
2023-05-10T16:42:59.568Z,50.50
2023-05-10T16:45:26.902Z,50.10
2023-05-10T16:47:55.290Z,51.00
2023-05-10T16:50:22.401Z,51.60
2023-05-10T16:52:49.333Z,52.10
2023-05-10T16:55:16.314Z,52.30
2023-05-10T16:57:43.374Z,53.70
2023-05-10T17:00:11.941Z,54.70
2023-05-10T17:02:39.321Z,56.00
2023-05-10T17:05:06.694Z,57.30
2023-05-10T17:07:33.651Z,57.80
2023-05-10T17:10:00.936Z,58.60
2023-05-10T17:12:28.142Z,59.00
2023-05-10T17:14:55.119Z,60.10
2023-05-10T17:17:23.468Z,61.10
2023-05-10T17:19:50.387Z,62.00
2023-05-10T17:22:17.308Z,62.90
2023-05-10T17:24:45.999Z,63.50
2023-05-10T17:27:13.741Z,64.40
2023-05-10T17:29:40.675Z,64.80
2023-05-10T17:32:09.441Z,65.40
2023-05-10T17:34:37.412Z,66.50
2023-05-10T17:37:04.428Z,66.60
2023-05-10T17:39:31.630Z,66.80
2023-05-10T17:41:58.541Z,67.00
2023-05-10T17:44:25.940Z,68.40
2023-05-10T17:46:52.854Z,68.90
2023-05-10T17:49:19.840Z,68.10
2023-05-10T17:51:53.620Z,68.50
2023-05-10T17:54:21.452Z,69.00
2023-05-10T17:56:48.841Z,69.50
2023-05-10T17:59:15.715Z,70.20
2023-05-10T18:01:44.165Z,70.70
2023-05-10T18:04:11.239Z,70.40
2023-05-10T18:06:39.130Z,71.30
2023-05-10T18:09:07.265Z,72.80
2023-05-10T18:11:36.412Z,73.00
2023-05-10T18:14:03.309Z,74.80
2023-05-10T18:16:30.310Z,76.80
2023-05-10T18:18:58.201Z,77.60
2023-05-10T18:21:25.210Z,77.90
2023-05-10T18:23:53.033Z,78.70
2023-05-10T18:26:20.377Z,79.10
2023-05-10T18:28:47.397Z,80.30
2023-05-10T18:31:14.420Z,81.20
2023-05-10T18:33:41.419Z,82.60
2023-05-10T18:36:08.815Z,83.00
2023-05-10T18:38:35.716Z,83.90
2023-05-10T18:41:03.812Z,84.90
2023-05-10T18:43:31.783Z,85.40
2023-05-10T18:45:58.725Z,85.90
2023-05-10T18:48:25.764Z,86.60
2023-05-10T18:50:52.792Z,87.70
2023-05-10T18:53:19.748Z,88.00
2023-05-10T18:55:46.791Z,89.70
2023-05-10T18:58:13.792Z,90.00
2023-05-10T19:00:40.700Z,90.10
2023-05-10T19:03:07.693Z,90.80
2023-05-10T19:05:34.605Z,90.90
2023-05-10T19:08:01.531Z,90.80
2023-05-10T19:10:28.717Z,91.10
2023-05-10T19:12:55.672Z,91.00
2023-05-10T19:15:22.818Z,91.30
2023-05-10T19:17:51.622Z,92.00
2023-05-10T19:20:18.743Z,92.10
2023-05-10T19:23:02.054Z,92.40
2023-05-10T19:25:34.761Z,92.70
2023-05-10T19:28:01.725Z,93.50
2023-05-10T19:30:28.802Z,93.40
2023-05-10T19:32:56.269Z,93.90
2023-05-10T19:35:24.051Z,93.80
2023-05-10T19:37:51.828Z,94.40
2023-05-10T19:40:18.804Z,94.20
2023-05-10T19:42:45.738Z,94.20
2023-05-10T19:45:12.639Z,95.30
2023-05-10T19:47:39.768Z,95.30
2023-05-10T19:50:07.632Z,95.70
2023-05-10T19:52:34.542Z,95.00
2023-05-10T19:55:01.567Z,95.70
2023-05-10T19:57:28.571Z,95.50
2023-05-10T19:59:55.642Z,97.00
2023-05-10T20:02:22.702Z,95.90
2023-05-10T20:04:49.994Z,95.90
2023-05-10T20:07:16.878Z,96.90
2023-05-10T20:09:44.392Z,96.80
2023-05-10T20:12:11.406Z,96.50
2023-05-10T20:14:38.781Z,97.20
2023-05-10T20:17:06.002Z,97.10
2023-05-10T20:19:32.931Z,97.70
2023-05-10T20:21:59.901Z,97.30
2023-05-10T20:24:26.762Z,97.80
2023-05-10T20:26:53.633Z,97.60
2023-05-10T20:29:20.602Z,97.90
2023-05-10T20:31:47.701Z,98.50
2023-05-10T20:34:14.737Z,97.90
2023-05-10T20:36:41.971Z,98.00
2023-05-10T20:39:09.612Z,97.90
2023-05-10T20:41:36.591Z,98.60
2023-05-10T20:44:03.565Z,98.00
2023-05-10T20:46:30.566Z,98.80
2023-05-10T20:48:57.869Z,98.60
2023-05-10T20:51:25.023Z,98.20
2023-05-10T20:53:54.861Z,97.90
2023-05-10T20:56:21.802Z,98.10
2023-05-10T20:58:48.842Z,98.10
2023-05-10T21:01:15.790Z,98.90
2023-05-10T21:03:42.753Z,99.00
2023-05-10T21:06:09.762Z,99.20
2023-05-10T21:08:36.693Z,98.60
2023-05-10T21:11:06.752Z,98.80
2023-05-10T21:13:33.942Z,99.30
2023-05-10T21:16:00.964Z,99.00
2023-05-10T21:18:28.032Z,99.00
2023-05-10T21:20:55.151Z,98.90
2023-05-10T21:23:22.592Z,99.50
2023-05-10T21:25:49.447Z,99.00
2023-05-10T21:28:16.465Z,99.80
2023-05-10T21:30:43.368Z,99.10
2023-05-10T21:33:10.277Z,99.00
2023-05-10T21:35:39.441Z,99.10
2023-05-10T21:38:06.458Z,99.90
2023-05-10T21:40:33.374Z,99.10
2023-05-10T21:43:00.333Z,99.00
2023-05-10T21:45:31.594Z,99.40
2023-05-10T21:48:02.425Z,99.00
2023-05-10T21:50:29.570Z,99.90
2023-05-10T21:52:56.819Z,99.70
2023-05-10T21:55:24.055Z,99.90
2023-05-10T21:57:51.575Z,99.40
2023-05-10T22:00:19.760Z,99.80
2023-05-10T22:02:47.172Z,99.20
2023-05-10T22:05:14.239Z,99.40
2023-05-10T22:07:41.269Z,99.30
2023-05-10T22:10:09.459Z,99.90
2023-05-10T22:12:36.358Z,99.40
2023-05-10T22:17:33.252Z,99.40
2023-05-10T22:20:00.349Z,99.90
2023-05-10T22:22:27.297Z,99.90
2023-05-10T22:24:54.208Z,99.90
2023-05-10T22:27:21.053Z,99.90
2023-05-10T22:29:48.677Z,99.90
2023-05-10T22:32:15.654Z,99.90
2023-05-10T22:34:43.190Z,99.90
2023-05-10T22:37:10.428Z,99.90
2023-05-10T22:39:37.395Z,99.90
2023-05-10T22:42:04.469Z,99.90
2023-05-10T22:44:31.511Z,99.90
2023-05-10T22:46:58.479Z,99.90
2023-05-10T22:49:25.724Z,99.90
2023-05-10T22:51:52.650Z,99.90
2023-05-10T22:54:19.584Z,99.90
2023-05-10T22:56:47.012Z,99.90
2023-05-10T22:59:13.968Z,99.90
2023-05-10T23:01:40.946Z,99.90
2023-05-10T23:04:07.953Z,99.90
2023-05-10T23:06:35.051Z,99.90
2023-05-10T23:09:02.050Z,99.90
2023-05-10T23:11:28.962Z,99.90
2023-05-10T23:13:55.912Z,99.90
2023-05-10T23:16:22.914Z,99.90
2023-05-10T23:18:49.975Z,99.90
2023-05-10T23:21:17.513Z,99.90
2023-05-10T23:23:44.481Z,99.90
2023-05-10T23:26:11.572Z,99.90
2023-05-10T23:28:38.665Z,99.90
2023-05-10T23:31:05.623Z,99.90
2023-05-10T23:33:32.511Z,99.90
2023-05-10T23:35:59.401Z,99.90
2023-05-10T23:38:26.401Z,99.90
2023-05-10T23:40:53.566Z,99.90
2023-05-10T23:43:21.652Z,99.90
2023-05-10T23:45:59.342Z,99.90
2023-05-10T23:48:26.353Z,99.90
2023-05-10T23:50:53.346Z,99.90
2023-05-10T23:53:20.284Z,99.90
2023-05-10T23:55:47.326Z,99.90
2023-05-10T23:58:14.284Z,99.90
